KEHY

Elk Mountain

Elk Mountain, Wyoming, USA
METAR KEHY 191715Z AUTO 25031G38KT 5SM CLR M02/M10 A3016 RMK AO2 PWINO
Observed Flight Rules
Jan-19 @ 17:15 UTC (20 minutes ago) Marginal Visual Flight Rules
Wind Visibility Clouds
250° at 31 knots
 Gusting to 38 knots
5 miles
  • Clear skies
Temperatures Readings
Current -2°C / 28°F
Dewpoint -10°C / 14°F
Humidity 55%
Altimeter 30.16" Hg
Pressure 1021.32 hPa
Elevation 2225
METAR KEHY 191715Z AUTO 25031G38KT 5SM CLR M02/M10 A3016 RMK AO2 PWINO
Observed Flight Rules
Jan-19 @ 17:15 UTC
(20 minutes ago)
MVFR
Wind Visibility
250° at 31 knots
 Gusting to 38 knots
5 miles
Clouds
  • Clear skies
Temperature Dewpoint
-2°C / 28°F -10°C / 14°F
Humidity Altimeter Pressure
55% 30.16" Hg 1021.32 hPa